Time;durP1;ratioP1;P1;durP2;ratioP2;P2;SDS_P1;SDS_P2;PMS_P1;PMS_P2;Temp;Humidity;BMP_temperature;BMP_pressure;BME280_temperature;BME280_humidity;BME280_pressure;Samples;Min_cycle;Max_cycle;Signal;HPM_P1;HPM_P2
2022/06/29 00:01:55;;;;;;;2.90;2.60;;;24.60;64.60;;;;;;5052184;28;20485;-70
2022/06/29 00:04:21;;;;;;;2.60;2.22;;;24.60;64.60;;;;;;5052378;28;20731;-70
2022/06/29 00:06:47;;;;;;;2.63;2.30;;;24.60;64.50;;;;;;5034298;28;20420;-71
2022/06/29 00:09:12;;;;;;;3.88;2.63;;;24.60;64.50;;;;;;5050719;28;20421;-70
2022/06/29 00:11:38;;;;;;;2.63;2.42;;;24.60;64.50;;;;;;5051434;28;20723;-70
2022/06/29 00:14:03;;;;;;;3.20;2.40;;;24.60;64.50;;;;;;5052701;28;20431;-70
2022/06/29 00:16:29;;;;;;;2.85;2.25;;;24.60;64.50;;;;;;5052837;28;20423;-70
2022/06/29 00:18:55;;;;;;;3.33;2.42;;;24.60;64.40;;;;;;5052203;28;20909;-69
2022/06/29 00:21:20;;;;;;;2.57;2.37;;;24.60;64.40;;;;;;5052592;28;20441;-70
2022/06/29 00:23:46;;;;;;;2.63;2.42;;;24.60;64.40;;;;;;5051647;28;20400;-69
2022/06/29 00:26:12;;;;;;;2.75;2.47;;;24.60;64.30;;;;;;5052174;28;20489;-70
2022/06/29 00:28:37;;;;;;;2.50;2.30;;;24.60;64.30;;;;;;5052196;28;20432;-70
2022/06/29 00:31:03;;;;;;;2.83;2.60;;;24.60;64.30;;;;;;5033468;28;20398;-70
2022/06/29 00:33:28;;;;;;;2.60;2.20;;;24.60;64.30;;;;;;5052383;28;20393;-70
2022/06/29 00:35:54;;;;;;;2.87;2.60;;;24.60;64.30;;;;;;5052357;28;20459;-70
2022/06/29 00:38:20;;;;;;;2.80;2.22;;;24.60;64.30;;;;;;5052314;28;20386;-70
2022/06/29 00:40:45;;;;;;;2.50;2.30;;;24.60;64.20;;;;;;5052282;28;20397;-70
2022/06/29 00:43:11;;;;;;;2.80;2.60;;;24.60;64.20;;;;;;5051776;28;20428;-70
2022/06/29 00:45:37;;;;;;;3.25;2.60;;;24.60;64.20;;;;;;5051414;28;20388;-70
2022/06/29 00:48:04;;;;;;;2.57;2.30;;;24.60;64.20;;;;;;5051938;28;20390;-70
2022/06/29 00:50:32;;;;;;;2.80;2.47;;;24.60;64.20;;;;;;5051689;28;20401;-70
2022/06/29 00:53:04;;;;;;;3.00;2.60;;;24.50;64.10;;;;;;5051787;28;20866;-69
2022/06/29 00:55:32;;;;;;;2.45;2.25;;;24.60;64.80;;;;;;5051533;28;20401;-71
2022/06/29 00:58:00;;;;;;;2.53;2.33;;;24.60;64.20;;;;;;5042185;28;20397;-70
2022/06/29 01:00:27;;;;;;;2.70;2.30;;;24.50;64.10;;;;;;5030956;28;20394;-71
2022/06/29 01:02:53;;;;;;;2.58;2.33;;;24.50;64.10;;;;;;5031426;28;20418;-71
2022/06/29 01:05:18;;;;;;;2.45;2.25;;;24.50;64.10;;;;;;5013524;28;20435;-71
2022/06/29 01:07:45;;;;;;;2.20;2.00;;;24.60;64.10;;;;;;5031654;28;20437;-70
2022/06/29 01:10:10;;;;;;;2.97;2.33;;;24.60;64.20;;;;;;5031820;28;20417;-70
2022/06/29 01:12:36;;;;;;;2.90;2.17;;;24.50;64.10;;;;;;5030593;28;20395;-70
2022/06/29 01:15:02;;;;;;;2.67;2.28;;;24.50;64.10;;;;;;5030287;28;20434;-70
2022/06/29 01:17:28;;;;;;;2.20;2.00;;;24.50;64.10;;;;;;5031366;28;20851;-70
2022/06/29 01:19:54;;;;;;;3.15;2.20;;;24.50;64.10;;;;;;5031549;28;20468;-70
2022/06/29 01:22:22;;;;;;;2.70;2.25;;;24.50;64.00;;;;;;5031353;28;20934;-70
2022/06/29 01:24:49;;;;;;;2.20;2.00;;;24.50;64.00;;;;;;5031308;28;20779;-70
2022/06/29 01:27:17;;;;;;;2.67;2.20;;;24.50;64.00;;;;;;5030965;28;20775;-70
2022/06/29 01:29:43;;;;;;;2.33;2.00;;;24.50;64.00;;;;;;5013672;28;20419;-70
2022/06/29 01:32:09;;;;;;;2.30;2.10;;;24.50;64.00;;;;;;5031307;28;20748;-70
2022/06/29 01:34:36;;;;;;;3.00;2.10;;;24.50;64.00;;;;;;5031217;28;20391;-70
2022/06/29 01:37:03;;;;;;;2.33;1.98;;;24.50;64.00;;;;;;5030994;28;20387;-67
2022/06/29 01:39:30;;;;;;;2.80;2.30;;;24.50;64.00;;;;;;5031433;28;20399;-70
2022/06/29 01:41:55;;;;;;;2.78;2.20;;;24.50;64.00;;;;;;5030718;28;20764;-70
2022/06/29 01:44:21;;;;;;;2.38;2.10;;;24.50;64.00;;;;;;5013766;28;20413;-70
2022/06/29 01:46:47;;;;;;;2.67;2.40;;;24.50;64.00;;;;;;5031163;28;20383;-70
2022/06/29 01:49:13;;;;;;;2.47;2.28;;;24.50;64.00;;;;;;5030600;28;20533;-70
2022/06/29 01:51:38;;;;;;;3.95;2.25;;;24.50;64.00;;;;;;5031064;28;20486;-70
2022/06/29 01:54:04;;;;;;;2.75;2.35;;;24.50;64.00;;;;;;5031323;28;20391;-70
2022/06/29 01:56:30;;;;;;;2.33;2.00;;;24.50;64.00;;;;;;5031166;28;20415;-70
2022/06/29 01:58:56;;;;;;;2.80;2.00;;;24.50;64.00;;;;;;5030041;28;20397;-70
2022/06/29 02:01:21;;;;;;;2.40;2.05;;;24.40;64.00;;;;;;5032571;28;20385;-71
2022/06/29 02:03:47;;;;;;;2.60;2.20;;;24.50;64.00;;;;;;5050941;28;20402;-70
2022/06/29 02:06:13;;;;;;;2.13;1.92;;;24.50;64.00;;;;;;5050848;28;20393;-70
2022/06/29 02:08:39;;;;;;;2.70;2.20;;;24.50;64.00;;;;;;5033129;28;20408;-70
2022/06/29 02:11:04;;;;;;;2.20;2.00;;;24.50;64.00;;;;;;5050589;28;20398;-67
2022/06/29 02:13:30;;;;;;;2.30;2.00;;;24.40;63.90;;;;;;5051130;28;20385;-70
2022/06/29 02:15:56;;;;;;;2.88;2.00;;;24.40;63.90;;;;;;5051097;28;20746;-70
2022/06/29 02:18:22;;;;;;;2.37;1.90;;;24.40;63.90;;;;;;5049983;28;20404;-69
2022/06/29 02:20:48;;;;;;;2.80;2.20;;;24.40;63.90;;;;;;5049978;28;20393;-70
2022/06/29 02:23:14;;;;;;;2.40;2.20;;;24.50;64.00;;;;;;5049983;28;20826;-70
2022/06/29 02:25:39;;;;;;;2.67;2.05;;;24.40;63.90;;;;;;5032589;28;20417;-69
2022/06/29 02:28:05;;;;;;;2.28;2.08;;;24.40;63.90;;;;;;5032788;28;20789;-70
2022/06/29 02:36:02;;;;;;;2.40;2.10;;;24.40;63.90;;;;;;5048334;28;20455;-70
2022/06/29 02:38:27;;;;;;;2.20;1.90;;;24.40;63.90;;;;;;5014364;28;20411;-70
2022/06/29 02:40:53;;;;;;;2.45;2.00;;;24.40;63.90;;;;;;5014874;28;20400;-72
2022/06/29 02:43:18;;;;;;;2.28;1.98;;;24.40;63.80;;;;;;5014096;28;20400;-71
2022/06/29 02:45:44;;;;;;;2.47;1.80;;;24.40;63.80;;;;;;5014375;28;20425;-71
2022/06/29 02:48:10;;;;;;;2.22;2.00;;;24.40;63.80;;;;;;5014621;28;20444;-70
2022/06/29 02:50:35;;;;;;;2.20;2.00;;;24.40;63.90;;;;;;5014759;28;20435;-71
2022/06/29 02:53:01;;;;;;;3.47;2.10;;;24.40;63.80;;;;;;5014786;28;20412;-70
2022/06/29 02:55:27;;;;;;;2.58;1.90;;;24.40;63.70;;;;;;5014235;28;20397;-70
2022/06/29 02:57:53;;;;;;;2.13;1.87;;;24.40;63.60;;;;;;5014723;28;20476;-70
2022/06/29 03:00:18;;;;;;;2.33;1.80;;;24.40;63.70;;;;;;5014312;28;20401;-70
2022/06/29 03:02:44;;;;;;;2.53;1.80;;;24.40;63.70;;;;;;5014494;28;20400;-70
2022/06/29 03:05:10;;;;;;;2.58;1.80;;;24.40;63.70;;;;;;5014118;28;20400;-69
2022/06/29 03:07:35;;;;;;;2.40;2.00;;;24.40;63.90;;;;;;5014525;28;20381;-69
2022/06/29 03:10:01;;;;;;;2.80;2.10;;;24.40;64.00;;;;;;5014438;28;20420;-70
2022/06/29 03:12:27;;;;;;;3.10;2.25;;;24.40;64.70;;;;;;4996883;28;20483;-70
2022/06/29 03:14:53;;;;;;;4.60;3.05;;;24.40;64.80;;;;;;5014388;28;20491;-70
2022/06/29 03:17:19;;;;;;;4.60;3.93;;;24.50;65.00;;;;;;5013403;28;20463;-71
2022/06/29 03:19:45;;;;;;;3.95;3.13;;;24.50;66.70;;;;;;5012721;28;20397;-71
2022/06/29 03:22:11;;;;;;;3.13;2.80;;;24.60;66.50;;;;;;5012532;28;20385;-70
2022/06/29 03:24:36;;;;;;;3.45;2.60;;;24.70;66.70;;;;;;4996031;28;20405;-70
2022/06/29 03:27:02;;;;;;;3.38;2.70;;;24.70;67.00;;;;;;4996329;28;20940;-70
2022/06/29 03:29:28;;;;;;;3.80;2.53;;;24.70;67.70;;;;;;5013571;28;20416;-69
2022/06/29 03:31:54;;;;;;;3.72;2.30;;;24.80;67.40;;;;;;5013563;28;20464;-70
2022/06/29 03:34:19;;;;;;;3.10;2.30;;;24.80;67.10;;;;;;5013983;28;20397;-70
2022/06/29 03:36:45;;;;;;;3.70;2.22;;;24.70;67.10;;;;;;5024957;28;20391;-70
2022/06/29 03:39:10;;;;;;;2.40;2.08;;;24.80;66.80;;;;;;5032903;28;20399;-68
2022/06/29 03:41:36;;;;;;;2.40;1.90;;;24.80;67.10;;;;;;5032865;28;20437;-70
2022/06/29 03:44:02;;;;;;;3.45;2.17;;;24.80;67.00;;;;;;5032852;28;20398;-69
2022/06/29 03:46:28;;;;;;;3.27;2.20;;;24.80;66.80;;;;;;5015811;28;20879;-69
2022/06/29 03:48:53;;;;;;;3.40;2.40;;;24.80;66.80;;;;;;5014855;28;20501;-70
2022/06/29 03:51:19;;;;;;;3.60;2.33;;;24.80;66.80;;;;;;5014835;28;20892;-70
2022/06/29 03:53:45;;;;;;;3.72;2.20;;;24.90;67.20;;;;;;5015112;28;20930;-70
2022/06/29 03:56:10;;;;;;;3.42;2.22;;;24.90;67.20;;;;;;5033129;28;20486;-69
2022/06/29 03:58:37;;;;;;;4.77;2.40;;;24.90;66.80;;;;;;5033109;28;20399;-70
2022/06/29 04:01:03;;;;;;;3.33;2.40;;;24.90;67.00;;;;;;5015518;28;20407;-69
2022/06/29 04:03:29;;;;;;;3.85;2.20;;;24.80;66.50;;;;;;5032271;28;20398;-70
2022/06/29 04:05:54;;;;;;;3.22;2.20;;;24.80;66.20;;;;;;5032879;28;20383;-70
2022/06/29 04:08:20;;;;;;;4.20;2.30;;;24.80;66.10;;;;;;5032977;28;20422;-70
2022/06/29 04:10:46;;;;;;;3.13;2.13;;;24.80;66.30;;;;;;5032999;28;20481;-71
2022/06/29 04:13:11;;;;;;;3.80;2.08;;;24.70;66.00;;;;;;5014917;28;20395;-69
2022/06/29 04:15:37;;;;;;;4.03;2.23;;;24.70;66.50;;;;;;5014835;28;20398;-70
2022/06/29 04:18:03;;;;;;;3.15;2.00;;;24.70;65.70;;;;;;5014859;28;20441;-68
2022/06/29 04:23:12;;;;;;;5.07;2.28;;;24.70;65.70;;;;;;5032004;28;20379;-67
2022/06/29 04:25:38;;;;;;;7.50;2.50;;;24.60;65.30;;;;;;5032489;28;20419;-69
2022/06/29 04:28:06;;;;;;;5.97;2.50;;;24.60;65.30;;;;;;5032192;28;20398;-69
2022/06/29 04:30:32;;;;;;;4.82;2.47;;;24.60;65.20;;;;;;5014742;28;20406;-68
2022/06/29 04:32:57;;;;;;;5.65;2.40;;;24.60;65.10;;;;;;5032487;28;21107;-68
2022/06/29 04:35:23;;;;;;;5.30;2.20;;;24.60;65.00;;;;;;5031741;28;20400;-70
2022/06/29 04:37:49;;;;;;;4.82;2.30;;;24.60;65.00;;;;;;5033352;28;20410;-69
2022/06/29 04:40:14;;;;;;;5.47;2.60;;;24.60;65.00;;;;;;5032060;28;20486;-69
2022/06/29 04:42:40;;;;;;;5.88;2.53;;;24.60;65.30;;;;;;5031996;28;20391;-69
2022/06/29 04:45:06;;;;;;;6.90;2.85;;;24.60;65.40;;;;;;5014107;28;20404;-69
2022/06/29 04:47:32;;;;;;;5.15;2.80;;;24.60;65.80;;;;;;5031333;28;20886;-68
2022/06/29 04:49:57;;;;;;;8.03;2.80;;;24.60;66.70;;;;;;5014048;28;20497;-68
2022/06/29 04:52:26;;;;;;;5.27;2.60;;;24.70;66.50;;;;;;5032095;28;20395;-68
2022/06/29 04:54:51;;;;;;;5.40;2.60;;;24.70;66.10;;;;;;5031815;28;20391;-68
2022/06/29 04:57:17;;;;;;;9.30;2.60;;;24.70;65.70;;;;;;5034096;28;20394;-67
2022/06/29 04:59:43;;;;;;;6.20;2.67;;;24.70;65.30;;;;;;5030511;28;20482;-68
2022/06/29 05:02:08;;;;;;;10.80;3.00;;;24.70;65.50;;;;;;5030764;28;20390;-69
2022/06/29 05:04:34;;;;;;;9.77;2.93;;;24.60;65.00;;;;;;5032068;28;20383;-67
2022/06/29 05:07:00;;;;;;;7.63;2.50;;;24.60;64.60;;;;;;5012929;28;20395;-68
2022/06/29 05:09:25;;;;;;;6.18;2.40;;;24.60;64.60;;;;;;5011773;28;20965;-68
2022/06/29 05:11:51;;;;;;;5.50;2.30;;;24.60;64.70;;;;;;5030170;28;20735;-68
2022/06/29 05:14:16;;;;;;;6.60;2.63;;;24.60;64.70;;;;;;5012332;28;20405;-68
2022/06/29 05:16:42;;;;;;;7.57;2.40;;;24.60;64.70;;;;;;5030405;28;20760;-68
2022/06/29 05:19:08;;;;;;;7.53;2.60;;;24.60;64.80;;;;;;5031153;28;20394;-68
2022/06/29 05:21:33;;;;;;;8.55;2.60;;;24.60;64.80;;;;;;5030198;28;20389;-67
2022/06/29 05:23:59;;;;;;;7.53;2.50;;;24.60;64.90;;;;;;5031032;28;20872;-69
2022/06/29 05:26:25;;;;;;;5.03;2.30;;;24.60;64.80;;;;;;5030466;28;20415;-68
2022/06/29 05:28:51;;;;;;;5.72;2.50;;;24.50;64.70;;;;;;5013003;28;20441;-69
2022/06/29 05:31:20;;;;;;;6.57;2.40;;;24.50;64.80;;;;;;5030359;28;20387;-67
2022/06/29 05:33:45;;;;;;;5.28;2.28;;;24.50;64.90;;;;;;5031228;28;20379;-67
2022/06/29 05:36:11;;;;;;;5.20;2.20;;;24.60;65.00;;;;;;5012179;28;20469;-68
2022/06/29 05:38:37;;;;;;;4.72;2.40;;;24.60;64.90;;;;;;5031348;28;20956;-68
2022/06/29 05:41:04;;;;;;;5.30;2.42;;;24.60;65.00;;;;;;5031033;28;20391;-68
2022/06/29 05:43:30;;;;;;;4.45;2.35;;;24.50;64.90;;;;;;5030195;28;20423;-68
2022/06/29 05:46:00;;;;;;;5.22;2.42;;;24.50;64.80;;;;;;5030506;28;20935;-69
2022/06/29 05:48:26;;;;;;;4.88;2.42;;;24.50;64.90;;;;;;5031161;28;20532;-68
2022/06/29 05:50:51;;;;;;;5.93;2.50;;;24.50;65.10;;;;;;5012604;28;20911;-67
2022/06/29 05:53:17;;;;;;;5.13;2.40;;;24.50;64.80;;;;;;5012647;28;20391;-67
2022/06/29 05:55:43;;;;;;;4.90;2.50;;;24.50;64.70;;;;;;5030883;28;20399;-67
2022/06/29 05:58:11;;;;;;;4.10;2.35;;;24.50;65.40;;;;;;5013415;28;20394;-69
2022/06/29 06:00:37;;;;;;;4.07;2.60;;;24.50;64.40;;;;;;5031524;28;20400;-67
2022/06/29 06:03:02;;;;;;;3.38;2.30;;;24.40;64.40;;;;;;5012208;28;20894;-68
2022/06/29 06:05:28;;;;;;;3.93;2.60;;;24.50;64.40;;;;;;5029964;28;20402;-68
2022/06/29 06:07:54;;;;;;;5.80;2.50;;;24.40;64.60;;;;;;5031722;28;20391;-67
2022/06/29 06:10:19;;;;;;;4.27;2.40;;;24.40;64.70;;;;;;5034679;28;20426;-68
2022/06/29 06:12:45;;;;;;;5.28;2.60;;;24.40;64.60;;;;;;5034821;28;20383;-68
2022/06/29 06:15:11;;;;;;;3.88;2.40;;;24.40;64.70;;;;;;5034613;28;20395;-68
2022/06/29 06:17:36;;;;;;;6.03;2.50;;;24.40;64.80;;;;;;5035323;28;20394;-67
2022/06/29 06:20:03;;;;;;;4.45;2.53;;;24.40;64.60;;;;;;5035146;28;20477;-67
2022/06/29 06:22:28;;;;;;;4.50;2.70;;;24.40;64.70;;;;;;5034769;28;20747;-67
2022/06/29 06:24:54;;;;;;;3.93;2.53;;;24.40;64.80;;;;;;5034570;28;20391;-68
2022/06/29 06:27:20;;;;;;;4.78;2.70;;;24.40;64.80;;;;;;5034196;28;20395;-67
2022/06/29 06:29:46;;;;;;;3.97;2.33;;;24.40;64.80;;;;;;5034350;28;20899;-68
2022/06/29 06:32:12;;;;;;;4.63;2.75;;;24.40;64.80;;;;;;5016513;28;20449;-68
2022/06/29 06:34:37;;;;;;;4.57;2.80;;;24.40;64.70;;;;;;5034019;28;20485;-67
2022/06/29 06:37:04;;;;;;;4.25;2.60;;;24.40;64.70;;;;;;5016222;28;20399;-68
2022/06/29 06:39:29;;;;;;;4.13;2.60;;;24.40;64.60;;;;;;5033771;28;20482;-68
2022/06/29 06:41:55;;;;;;;3.63;2.60;;;24.40;64.40;;;;;;5034371;28;20469;-68
2022/06/29 06:44:20;;;;;;;4.30;2.60;;;24.40;64.30;;;;;;5034527;28;20391;-68
2022/06/29 06:46:48;;;;;;;4.78;2.70;;;24.40;64.30;;;;;;5016291;28;20421;-67
2022/06/29 06:49:22;;;;;;;4.95;2.78;;;24.40;64.30;;;;;;5033795;28;20549;-68
2022/06/29 06:51:49;;;;;;;4.20;2.50;;;24.40;64.10;;;;;;5034296;28;20391;-68
2022/06/29 06:54:15;;;;;;;5.30;2.75;;;24.40;64.00;;;;;;5016189;28;20819;-68
2022/06/29 06:56:40;;;;;;;3.57;2.67;;;24.40;64.00;;;;;;5015989;28;20477;-67
2022/06/29 06:59:06;;;;;;;4.93;2.70;;;24.30;64.30;;;;;;5033749;28;20946;-68
2022/06/29 07:01:32;;;;;;;4.53;2.50;;;24.40;65.20;;;;;;5015102;28;20391;-68
2022/06/29 07:03:57;;;;;;;4.43;2.60;;;24.40;64.60;;;;;;5015674;28;20545;-68
2022/06/29 07:06:23;;;;;;;7.38;2.90;;;24.40;64.70;;;;;;5033757;28;20392;-68
2022/06/29 07:08:49;;;;;;;4.35;2.80;;;24.30;64.60;;;;;;5015859;28;20791;-69
2022/06/29 07:11:15;;;;;;;5.53;2.80;;;24.30;64.50;;;;;;5033672;28;20478;-69
2022/06/29 07:13:41;;;;;;;45.00;28.17;;;24.30;64.60;;;;;;5033343;28;20945;-66
2022/06/29 07:16:07;;;;;;;1999.90;942.23;;;24.40;65.30;;;;;;5034024;28;20395;-69
2022/06/29 07:18:34;;;;;;;1999.90;999.90;;;24.40;65.40;;;;;;5030326;28;20399;-69
2022/06/29 07:21:00;;;;;;;1701.57;854.40;;;24.50;65.30;;;;;;5033023;28;20402;-70
2022/06/29 07:23:29;;;;;;;1303.95;742.08;;;24.50;66.30;;;;;;5014065;28;20459;-68
2022/06/29 07:25:56;;;;;;;1283.80;736.40;;;24.60;67.50;;;;;;5032505;28;20410;-69
2022/06/29 07:28:22;;;;;;;1203.28;697.92;;;24.60;67.70;;;;;;5015077;28;20422;-69
2022/06/29 07:30:47;;;;;;;1119.88;667.08;;;24.60;67.00;;;;;;5032403;28;20403;-69
2022/06/29 07:33:13;;;;;;;1032.53;623.50;;;24.60;66.80;;;;;;5015340;28;20453;-69
2022/06/29 07:35:39;;;;;;;956.00;583.95;;;24.50;66.50;;;;;;5014719;28;20410;-69
2022/06/29 07:38:05;;;;;;;882.25;541.80;;;24.50;66.20;;;;;;5033031;28;20395;-68
2022/06/29 07:40:31;;;;;;;836.72;507.08;;;24.50;66.00;;;;;;5015324;28;20490;-69
2022/06/29 07:42:57;;;;;;;767.08;467.73;;;24.50;65.50;;;;;;5015341;28;20474;-68
2022/06/29 07:45:22;;;;;;;754.70;446.97;;;24.50;65.30;;;;;;5014809;28;20395;-68
2022/06/29 07:47:49;;;;;;;663.75;385.60;;;24.40;65.30;;;;;;5032413;28;20470;-68
2022/06/29 07:50:15;;;;;;;652.30;380.23;;;24.40;65.30;;;;;;5015098;28;20419;-68
2022/06/29 07:52:42;;;;;;;609.78;348.65;;;24.50;64.90;;;;;;5032766;28;20461;-68
2022/06/29 07:55:08;;;;;;;595.90;336.02;;;24.40;64.70;;;;;;5032399;28;20880;-68
2022/06/29 07:57:35;;;;;;;547.78;316.85;;;24.40;64.60;;;;;;5032237;28;20424;-69
2022/06/29 08:00:00;;;;;;;536.43;307.70;;;24.40;64.50;;;;;;5033273;28;20480;-69
2022/06/29 08:02:26;;;;;;;584.35;330.27;;;24.40;64.50;;;;;;5031756;28;20405;-69
2022/06/29 08:04:52;;;;;;;548.57;309.43;;;24.40;64.60;;;;;;5032741;28;20403;-69
2022/06/29 08:07:17;;;;;;;518.35;292.65;;;24.40;64.60;;;;;;5015078;28;20794;-68
2022/06/29 08:09:43;;;;;;;531.17;295.23;;;24.40;64.40;;;;;;5032042;28;20904;-69
2022/06/29 08:12:09;;;;;;;487.43;273.03;;;24.40;64.50;;;;;;5014702;28;20421;-68
2022/06/29 08:14:35;;;;;;;492.02;268.48;;;24.40;64.50;;;;;;5014184;28;20403;-68
2022/06/29 08:17:00;;;;;;;471.65;254.55;;;24.40;64.30;;;;;;5032528;28;20743;-69
2022/06/29 08:19:26;;;;;;;455.63;242.57;;;24.40;64.50;;;;;;5031172;28;20482;-68
2022/06/29 08:21:52;;;;;;;445.53;234.37;;;24.40;64.50;;;;;;5014726;28;20387;-69
2022/06/29 08:24:17;;;;;;;433.55;223.65;;;24.40;64.40;;;;;;5032305;28;20891;-69
2022/06/29 08:26:43;;;;;;;418.40;209.90;;;24.40;64.50;;;;;;5032184;28;20414;-69
2022/06/29 08:29:09;;;;;;;383.87;189.40;;;24.40;64.30;;;;;;5032366;28;20419;-69
2022/06/29 08:31:34;;;;;;;374.25;182.18;;;24.40;64.40;;;;;;5030693;28;20393;-68
2022/06/29 08:34:02;;;;;;;368.87;173.40;;;24.40;64.40;;;;;;5032501;28;20392;-69
2022/06/29 08:36:28;;;;;;;328.42;152.02;;;24.40;64.50;;;;;;5032077;28;20792;-69
2022/06/29 08:38:54;;;;;;;310.30;145.70;;;24.40;64.40;;;;;;5014356;28;20399;-68
2022/06/29 08:41:20;;;;;;;302.77;143.30;;;24.40;64.30;;;;;;5031958;28;20383;-70
2022/06/29 08:43:46;;;;;;;278.35;134.48;;;24.40;64.30;;;;;;5031233;28;20390;-68
2022/06/29 08:46:15;;;;;;;287.67;137.90;;;24.40;64.30;;;;;;5051630;28;20385;-69
2022/06/29 08:48:40;;;;;;;281.90;130.67;;;24.40;64.40;;;;;;5033349;28;20504;-70
2022/06/29 08:51:08;;;;;;;263.73;127.70;;;24.40;65.00;;;;;;5033611;28;20847;-69
2022/06/29 08:53:36;;;;;;;255.98;123.35;;;24.40;64.90;;;;;;5051192;28;20381;-68
2022/06/29 08:56:03;;;;;;;247.95;119.18;;;24.40;65.00;;;;;;5051651;28;20399;-68
2022/06/29 08:58:29;;;;;;;234.38;112.68;;;24.40;65.00;;;;;;5051521;28;20398;-67
2022/06/29 09:00:55;;;;;;;224.60;107.65;;;24.40;64.80;;;;;;5039457;28;20394;-68
2022/06/29 09:03:22;;;;;;;202.30;100.57;;;24.40;64.90;;;;;;5030119;28;20402;-68
2022/06/29 09:05:50;;;;;;;200.18;95.85;;;24.40;64.90;;;;;;5012983;28;20975;-67
2022/06/29 09:08:16;;;;;;;185.82;90.40;;;24.40;64.90;;;;;;5030810;28;20789;-68
2022/06/29 09:10:42;;;;;;;174.38;84.75;;;24.40;64.80;;;;;;5028653;28;20501;-68
2022/06/29 09:13:09;;;;;;;161.18;78.63;;;24.40;64.80;;;;;;5007805;28;20391;-68
2022/06/29 09:15:38;;;;;;;150.05;73.78;;;24.40;64.60;;;;;;5011011;28;20439;-67
2022/06/29 09:18:25;;;;;;;140.20;70.22;;;24.40;64.90;;;;;;5011434;28;20401;-68
2022/06/29 09:20:56;;;;;;;133.90;65.13;;;24.40;64.70;;;;;;5011418;28;20396;-68
2022/06/29 09:23:23;;;;;;;128.55;62.63;;;24.40;64.80;;;;;;5047922;28;20394;-67
2022/06/29 09:25:49;;;;;;;119.60;59.08;;;24.40;64.70;;;;;;5050601;28;20401;-68
2022/06/29 09:28:44;;;;;;;113.97;56.35;;;24.40;64.80;;;;;;5051048;28;20397;-68
2022/06/29 09:31:09;;;;;;;109.88;53.90;;;24.40;64.70;;;;;;5037391;28;20440;-67
2022/06/29 09:33:35;;;;;;;102.43;50.47;;;24.40;64.70;;;;;;5029965;28;20911;-68
2022/06/29 09:36:08;;;;;;;99.28;49.38;;;24.40;64.60;;;;;;5031092;28;20383;-68
2022/06/29 09:38:35;;;;;;;94.13;47.00;;;24.40;64.60;;;;;;5031870;28;20391;-67
2022/06/29 09:41:12;;;;;;;87.78;45.13;;;24.40;64.60;;;;;;5031712;28;20386;-69
2022/06/29 09:43:40;;;;;;;88.38;44.33;;;24.40;64.20;;;;;;4996716;28;20403;-69
2022/06/29 09:46:09;;;;;;;80.95;41.08;;;24.40;64.40;;;;;;5022833;28;20392;-68
2022/06/29 09:48:36;;;;;;;79.88;41.03;;;24.40;64.20;;;;;;5020700;28;20407;-68
2022/06/29 09:51:30;;;;;;;73.10;36.75;;;24.40;64.40;;;;;;5020352;28;20438;-67
2022/06/29 09:53:52;;;;;;;73.03;36.28;;;24.40;64.20;;;;;;5030020;28;20887;-69
2022/06/29 09:56:21;;;;;;;66.63;35.70;;;24.40;64.00;;;;;;5005966;28;20435;-68
2022/06/29 09:58:48;;;;;;;63.03;33.72;;;24.50;64.00;;;;;;5011756;28;20959;-69
2022/06/29 10:04:00;;;;;;;57.72;29.50;;;24.40;63.80;;;;;;5020446;28;20402;-69
2022/06/29 10:06:27;;;;;;;53.17;28.05;;;24.50;64.10;;;;;;5020840;28;20438;-69
2022/06/29 10:08:53;;;;;;;49.47;25.70;;;24.50;64.30;;;;;;5025193;28;21067;-69
2022/06/29 10:14:17;;;;;;;44.72;23.38;;;24.50;64.10;;;;;;5022193;28;20456;-69
2022/06/29 10:16:54;;;;;;;45.65;24.40;;;24.50;64.00;;;;;;5017767;28;20424;-67
2022/06/29 10:19:49;;;;;;;42.45;23.52;;;24.50;64.00;;;;;;5026408;28;20474;-68
2022/06/29 10:22:15;;;;;;;40.53;21.23;;;24.50;63.90;;;;;;5027879;28;20399;-68
2022/06/29 10:25:07;;;;;;;39.03;20.87;;;24.50;64.00;;;;;;5008329;28;20404;-68
2022/06/29 10:27:33;;;;;;;34.30;19.45;;;24.50;63.80;;;;;;5023960;28;20401;-67
2022/06/29 10:30:22;;;;;;;37.40;19.80;;;24.40;63.80;;;;;;5002794;28;20445;-67
2022/06/29 10:32:48;;;;;;;35.83;19.67;;;24.40;63.70;;;;;;5027274;28;20471;-67
2022/06/29 10:35:14;;;;;;;33.22;19.33;;;24.50;63.90;;;;;;5023569;28;20494;-68
2022/06/29 10:37:52;;;;;;;31.75;18.15;;;24.50;63.80;;;;;;5023688;28;20426;-67
2022/06/29 10:40:19;;;;;;;32.28;17.90;;;24.50;63.80;;;;;;5023770;28;20391;-68
2022/06/29 10:45:41;;;;;;;28.67;15.75;;;24.50;63.90;;;;;;5024724;28;20928;-67
2022/06/29 10:48:07;;;;;;;27.17;14.98;;;24.50;63.80;;;;;;5027086;28;20406;-68
2022/06/29 10:50:38;;;;;;;25.25;14.35;;;24.50;63.90;;;;;;5026599;28;20419;-68
2022/06/29 10:53:08;;;;;;;25.70;14.32;;;24.50;63.80;;;;;;5024474;28;20395;-68
2022/06/29 10:55:37;;;;;;;26.77;14.23;;;24.50;63.90;;;;;;5012321;28;20407;-68
2022/06/29 10:58:03;;;;;;;25.52;13.23;;;24.50;64.50;;;;;;5031488;28;20407;-68
2022/06/29 11:00:34;;;;;;;24.63;13.20;;;24.50;64.60;;;;;;5031370;28;20399;-69
2022/06/29 11:03:16;;;;;;;22.75;13.18;;;24.50;64.80;;;;;;5029722;28;20403;-69
2022/06/29 11:13:59;;;;;;;20.20;11.38;;;24.60;65.10;;;;;;5030211;28;20433;-67
2022/06/29 11:16:30;;;;;;;19.58;11.35;;;24.60;65.00;;;;;;5028635;28;20497;-68
2022/06/29 11:18:56;;;;;;;19.38;11.60;;;24.60;64.70;;;;;;5028574;28;20379;-68
2022/06/29 11:21:23;;;;;;;17.40;11.13;;;24.60;64.50;;;;;;5029184;28;20478;-68
2022/06/29 11:23:55;;;;;;;18.93;11.53;;;24.60;64.30;;;;;;5029198;28;20388;-69
2022/06/29 11:26:25;;;;;;;18.60;11.07;;;24.60;64.20;;;;;;5029063;28;20565;-67
2022/06/29 11:28:51;;;;;;;16.80;10.20;;;24.60;64.20;;;;;;5029352;28;20468;-68
2022/06/29 11:31:18;;;;;;;18.13;9.98;;;24.60;64.20;;;;;;5027506;28;20470;-67
2022/06/29 11:33:48;;;;;;;16.73;10.27;;;24.60;64.10;;;;;;5028552;28;20893;-68
2022/06/29 11:36:23;;;;;;;15.30;9.77;;;24.60;64.10;;;;;;5011498;28;20482;-67
2022/06/29 11:38:51;;;;;;;18.02;10.05;;;24.60;63.80;;;;;;5029163;28;20418;-67
2022/06/29 11:41:25;;;;;;;16.13;9.60;;;24.60;64.10;;;;;;5029222;28;20399;-67
2022/06/29 11:44:24;;;;;;;16.13;9.15;;;24.60;64.00;;;;;;5013337;28;20398;-67
2022/06/29 11:46:51;;;;;;;16.45;9.90;;;24.60;63.90;;;;;;4980798;28;20834;-67
2022/06/29 11:52:03;;;;;;;13.93;8.93;;;24.60;63.90;;;;;;5030996;28;20408;-67
2022/06/29 11:54:39;;;;;;;14.48;8.93;;;24.50;63.80;;;;;;5011214;28;20456;-67
2022/06/29 11:57:06;;;;;;;13.83;8.83;;;24.60;63.80;;;;;;5011944;28;20403;-68
2022/06/29 11:59:32;;;;;;;13.18;8.75;;;24.50;63.70;;;;;;5031322;28;20398;-68
2022/06/29 12:01:59;;;;;;;12.80;8.57;;;24.60;63.80;;;;;;5028242;28;20718;-69
2022/06/29 12:04:32;;;;;;;12.55;8.00;;;24.50;63.70;;;;;;5028114;28;20518;-69
2022/06/29 12:07:05;;;;;;;13.17;8.53;;;24.60;63.80;;;;;;5030982;28;20950;-68
2022/06/29 12:09:31;;;;;;;12.40;7.90;;;24.50;63.80;;;;;;5010716;28;20414;-68
2022/06/29 12:11:57;;;;;;;12.25;7.50;;;24.50;63.80;;;;;;5012849;28;20748;-69
2022/06/29 12:14:23;;;;;;;13.20;7.70;;;24.50;63.80;;;;;;5020682;28;20517;-68
2022/06/29 12:16:48;;;;;;;12.43;7.60;;;24.50;63.80;;;;;;5025719;28;20395;-69
2022/06/29 12:19:14;;;;;;;11.73;7.37;;;24.50;63.80;;;;;;4997675;28;20423;-70
2022/06/29 12:21:40;;;;;;;12.73;7.55;;;24.50;63.90;;;;;;5024592;28;20826;-67
2022/06/29 12:24:05;;;;;;;10.37;7.40;;;24.50;63.80;;;;;;5020479;28;20396;-69
2022/06/29 12:26:32;;;;;;;11.57;7.00;;;24.50;63.90;;;;;;5031497;28;20411;-69
2022/06/29 12:28:58;;;;;;;10.38;7.07;;;24.50;63.80;;;;;;5015726;28;20512;-68
2022/06/29 12:31:23;;;;;;;10.93;7.33;;;24.50;63.80;;;;;;5010416;28;20484;-68
2022/06/29 12:33:49;;;;;;;10.75;7.18;;;24.50;63.80;;;;;;5017745;28;20414;-69
2022/06/29 12:36:15;;;;;;;11.63;7.10;;;24.50;63.90;;;;;;5021769;28;20956;-68
2022/06/29 12:38:41;;;;;;;8.55;6.45;;;24.50;63.90;;;;;;5024634;28;20416;-68
2022/06/29 12:41:07;;;;;;;10.95;6.90;;;24.50;63.80;;;;;;5015386;28;20873;-69
2022/06/29 12:43:33;;;;;;;9.18;6.60;;;24.50;63.90;;;;;;5027174;28;20420;-69
2022/06/29 12:45:59;;;;;;;8.85;6.38;;;24.50;63.90;;;;;;5019774;28;20410;-69
2022/06/29 12:48:25;;;;;;;9.18;6.35;;;24.50;63.90;;;;;;5020989;28;20396;-68
2022/06/29 12:50:51;;;;;;;10.23;6.50;;;24.50;63.80;;;;;;5008945;28;20395;-68
2022/06/29 12:53:16;;;;;;;9.88;6.20;;;24.50;63.80;;;;;;5015309;28;20389;-68
2022/06/29 12:55:42;;;;;;;8.83;5.83;;;24.50;63.90;;;;;;5008100;28;20901;-68
2022/06/29 12:58:08;;;;;;;8.20;5.95;;;24.50;63.80;;;;;;5003054;28;20390;-69
2022/06/29 13:00:34;;;;;;;7.75;5.90;;;24.50;63.80;;;;;;5035874;28;20832;-69
2022/06/29 13:03:01;;;;;;;7.95;6.25;;;24.50;63.80;;;;;;5015442;28;20479;-69